createdAt,value
2022-11-24T00:02:53.515Z,5.61
2022-11-24T00:05:55.978Z,5.54
2022-11-24T00:08:58.701Z,5.50
2022-11-24T00:12:01.339Z,5.53
2022-11-24T00:15:03.769Z,5.55
2022-11-24T00:18:06.229Z,5.52
2022-11-24T00:21:08.872Z,5.44
2022-11-24T00:24:11.929Z,5.46
2022-11-24T00:27:14.023Z,5.51
2022-11-24T00:30:16.420Z,5.59
2022-11-24T00:33:18.553Z,5.55
2022-11-24T00:36:22.789Z,5.56
2022-11-24T00:39:25.032Z,5.51
2022-11-24T00:42:27.439Z,5.51
2022-11-24T00:45:29.515Z,5.51
2022-11-24T00:48:32.041Z,5.49
2022-11-24T00:51:34.128Z,5.53
2022-11-24T00:54:36.488Z,5.57
2022-11-24T00:57:38.565Z,5.57
2022-11-24T01:00:40.911Z,5.59
2022-11-24T01:03:43.419Z,5.57
2022-11-24T01:06:45.766Z,5.52
2022-11-24T01:09:47.853Z,5.47
2022-11-24T01:12:50.368Z,5.49
2022-11-24T01:15:52.554Z,5.54
2022-11-24T01:18:55.685Z,5.53
2022-11-24T01:21:57.761Z,5.54
2022-11-24T01:25:00.105Z,5.51
2022-11-24T01:28:02.193Z,5.47
2022-11-24T01:31:07.012Z,5.48
2022-11-24T01:34:09.305Z,5.54
2022-11-24T01:37:11.924Z,5.62
2022-11-24T01:40:14.133Z,5.58
2022-11-24T01:43:19.043Z,5.53
2022-11-24T01:46:44.842Z,5.59
2022-11-24T01:49:51.443Z,5.52
2022-11-24T01:52:55.559Z,5.54
2022-11-24T01:55:58.678Z,5.57
2022-11-24T01:59:02.740Z,5.47
2022-11-24T02:02:05.767Z,5.53
2022-11-24T02:05:33.253Z,5.43
2022-11-24T02:09:07.951Z,5.48
2022-11-24T02:12:10.393Z,5.46
2022-11-24T02:15:15.385Z,5.51
2022-11-24T02:18:17.482Z,5.51
2022-11-24T02:21:19.954Z,5.46
2022-11-24T02:24:32.983Z,5.45
2022-11-24T02:27:35.789Z,5.52
2022-11-24T02:30:38.036Z,5.47
2022-11-24T02:33:40.823Z,5.52
2022-11-24T02:36:42.934Z,5.49
2022-11-24T02:39:45.282Z,5.47
2022-11-24T02:42:47.582Z,5.51
2022-11-24T02:45:50.094Z,5.37
2022-11-24T02:48:52.289Z,5.38
2022-11-24T02:51:54.631Z,5.46
2022-11-24T02:54:56.725Z,5.34
2022-11-24T02:57:59.188Z,5.34
2022-11-24T03:01:01.510Z,5.32
2022-11-24T03:04:03.988Z,5.29
2022-11-24T03:07:06.294Z,5.37
2022-11-24T03:10:09.078Z,5.39
2022-11-24T03:13:11.395Z,5.28
2022-11-24T03:16:13.852Z,5.27
2022-11-24T03:19:15.974Z,5.25
2022-11-24T03:22:18.402Z,5.28
2022-11-24T03:25:20.567Z,5.22
2022-11-24T03:28:22.949Z,5.20
2022-11-24T03:31:25.132Z,5.20
2022-11-24T03:34:27.521Z,5.22
2022-11-24T03:37:29.785Z,5.25
2022-11-24T03:40:32.138Z,5.22
2022-11-24T03:43:37.808Z,5.13
2022-11-24T03:46:43.067Z,5.12
2022-11-24T03:49:45.767Z,5.14
2022-11-24T03:52:48.183Z,5.21
2022-11-24T03:55:50.428Z,5.23
2022-11-24T03:58:52.776Z,5.16
2022-11-24T04:01:55.030Z,5.13
2022-11-24T04:04:57.419Z,5.09
2022-11-24T04:08:02.944Z,5.04
2022-11-24T04:11:05.504Z,5.08
2022-11-24T04:14:12.089Z,5.09
2022-11-24T04:17:15.846Z,5.08
2022-11-24T04:20:17.986Z,5.04
2022-11-24T04:23:20.367Z,5.02
2022-11-24T04:26:22.475Z,5.02
2022-11-24T04:29:24.821Z,5.04
2022-11-24T04:32:26.934Z,5.10
2022-11-24T04:35:29.351Z,5.07
2022-11-24T04:39:23.990Z,4.95
2022-11-24T04:41:53.837Z,4.92
2022-11-24T04:44:56.212Z,4.96
2022-11-24T04:47:58.592Z,4.88
2022-11-24T04:51:05.459Z,4.84
2022-11-24T04:54:10.269Z,4.90
2022-11-24T04:57:17.895Z,4.81
2022-11-24T05:00:20.538Z,4.73
2022-11-24T05:03:22.644Z,4.65
2022-11-24T05:06:25.550Z,4.62
2022-11-24T05:09:41.945Z,4.65
2022-11-24T05:12:57.668Z,4.57
2022-11-24T05:16:01.295Z,4.66
2022-11-24T05:19:03.785Z,4.66
2022-11-24T05:22:05.895Z,4.80
2022-11-24T05:25:08.692Z,4.76
2022-11-24T05:28:10.921Z,4.79
2022-11-24T05:31:13.343Z,4.78
2022-11-24T05:34:15.829Z,4.96
2022-11-24T05:37:18.229Z,4.95
2022-11-24T05:40:20.379Z,4.97
2022-11-24T05:43:22.753Z,5.04
2022-11-24T05:46:24.892Z,5.15
2022-11-24T05:49:27.314Z,5.12
2022-11-24T05:52:29.454Z,5.18
2022-11-24T05:55:32.725Z,5.29
2022-11-24T05:58:34.909Z,5.33
2022-11-24T06:01:37.452Z,5.33
2022-11-24T06:04:40.045Z,5.31
2022-11-24T06:07:42.329Z,5.37
2022-11-24T06:10:44.843Z,5.34
2022-11-24T06:13:48.654Z,5.44
2022-11-24T06:16:51.388Z,5.43
2022-11-24T06:19:53.696Z,5.33
2022-11-24T06:22:58.627Z,5.35
2022-11-24T06:26:01.516Z,5.41
2022-11-24T06:29:04.190Z,5.45
2022-11-24T06:32:06.506Z,5.37
2022-11-24T06:35:09.067Z,5.21
2022-11-24T06:38:11.200Z,5.34
2022-11-24T06:41:15.590Z,5.29
2022-11-24T06:44:17.793Z,5.31
2022-11-24T06:47:20.191Z,5.30
2022-11-24T06:50:22.939Z,5.23
2022-11-24T06:53:25.347Z,5.16
2022-11-24T06:56:27.888Z,5.27
2022-11-24T06:59:30.426Z,5.43
2022-11-24T07:02:32.884Z,5.43
2022-11-24T07:05:35.422Z,5.37
2022-11-24T07:08:37.581Z,5.44
2022-11-24T07:11:40.141Z,5.52
2022-11-24T07:14:42.243Z,5.52
2022-11-24T07:17:44.618Z,5.53
2022-11-24T07:20:47.032Z,5.56
2022-11-24T07:23:53.023Z,5.66
2022-11-24T07:26:55.113Z,5.70
2022-11-24T07:29:57.513Z,5.74
2022-11-24T07:33:01.049Z,5.74
2022-11-24T07:36:05.583Z,5.74
2022-11-24T07:39:07.671Z,5.82
2022-11-24T07:42:11.833Z,6.00
2022-11-24T07:45:14.145Z,6.03
2022-11-24T07:48:16.978Z,5.92
2022-11-24T07:51:21.351Z,5.96
2022-11-24T07:54:23.702Z,5.98
2022-11-24T07:57:25.842Z,6.04
2022-11-24T08:00:28.322Z,5.98
2022-11-24T08:03:30.698Z,6.05
2022-11-24T08:06:39.654Z,6.07
2022-11-24T08:09:44.353Z,6.10
2022-11-24T08:12:46.491Z,6.16
2022-11-24T08:15:48.820Z,6.10
2022-11-24T08:18:53.338Z,6.11
2022-11-24T08:21:55.881Z,6.26
2022-11-24T08:24:58.014Z,6.21
2022-11-24T08:28:01.286Z,6.26
2022-11-24T08:31:14.596Z,6.33
2022-11-24T08:34:16.959Z,6.28
2022-11-24T08:37:19.159Z,6.27
2022-11-24T08:40:21.760Z,6.31
2022-11-24T08:43:23.874Z,6.29
2022-11-24T08:46:26.489Z,6.28
2022-11-24T08:49:29.080Z,6.40
2022-11-24T08:52:31.574Z,6.27
2022-11-24T08:55:33.717Z,6.33
2022-11-24T08:58:37.051Z,6.31
2022-11-24T09:01:39.407Z,6.29
2022-11-24T09:04:44.332Z,6.37
2022-11-24T09:07:46.555Z,6.32
2022-11-24T09:10:49.049Z,6.50
2022-11-24T09:13:51.561Z,6.44
2022-11-24T09:16:53.984Z,6.39
2022-11-24T09:19:58.960Z,6.42
2022-11-24T09:23:02.598Z,6.45
2022-11-24T09:26:10.283Z,6.59
2022-11-24T09:29:13.681Z,6.63
2022-11-24T09:32:15.868Z,6.59
2022-11-24T09:35:18.553Z,6.55
2022-11-24T09:38:20.654Z,6.61
2022-11-24T09:41:41.899Z,6.70
2022-11-24T09:44:46.780Z,6.76
2022-11-24T09:48:10.700Z,6.74
2022-11-24T09:51:15.148Z,6.81
2022-11-24T09:54:25.386Z,6.68
2022-11-24T09:57:34.273Z,6.62
2022-11-24T10:00:41.409Z,6.67
2022-11-24T10:03:51.419Z,6.59
2022-11-24T10:07:11.962Z,6.61
2022-11-24T10:10:28.568Z,6.45
2022-11-24T10:14:02.992Z,6.50
2022-11-24T10:17:22.017Z,6.59
2022-11-24T10:20:55.002Z,6.48
2022-11-24T10:24:27.305Z,6.54
2022-11-24T10:27:49.324Z,6.56
2022-11-24T10:30:51.922Z,6.65
2022-11-24T10:33:54.052Z,6.69
2022-11-24T10:37:12.330Z,6.71
2022-11-24T10:40:55.471Z,6.73
2022-11-24T10:43:53.417Z,6.79
2022-11-24T10:46:55.815Z,6.77
2022-11-24T10:50:01.710Z,6.63
2022-11-24T10:53:25.844Z,6.75
2022-11-24T10:56:39.108Z,6.78
2022-11-24T10:59:41.219Z,6.73
2022-11-24T11:02:43.824Z,6.75
2022-11-24T11:06:10.480Z,6.81
2022-11-24T11:09:21.624Z,6.87
2022-11-24T11:12:49.668Z,6.90
2022-11-24T11:15:53.935Z,6.81
2022-11-24T11:18:56.589Z,6.84
2022-11-24T11:22:09.701Z,6.84
2022-11-24T11:25:11.882Z,7.02
2022-11-24T11:28:18.330Z,7.06
2022-11-24T11:31:22.995Z,7.06
2022-11-24T11:34:35.577Z,7.10
2022-11-24T11:37:37.841Z,7.24
2022-11-24T11:40:43.590Z,7.29
2022-11-24T11:43:49.556Z,7.41
2022-11-24T11:46:54.750Z,7.40
2022-11-24T11:49:58.459Z,7.33
2022-11-24T11:53:23.546Z,7.45
2022-11-24T11:56:31.090Z,7.50
2022-11-24T12:00:05.548Z,7.52
2022-11-24T12:03:33.458Z,7.57
2022-11-24T12:07:05.010Z,7.57
2022-11-24T12:10:07.503Z,7.58
2022-11-24T12:13:37.627Z,7.50
2022-11-24T12:17:03.071Z,7.51
2022-11-24T12:20:31.090Z,7.55
2022-11-24T12:24:01.534Z,7.54
2022-11-24T12:27:39.839Z,7.46
2022-11-24T12:30:51.181Z,7.48
2022-11-24T12:34:18.145Z,7.46
2022-11-24T12:37:51.821Z,7.51
2022-11-24T12:41:39.744Z,7.48
2022-11-24T12:44:59.654Z,7.33
2022-11-24T12:48:17.338Z,7.49
2022-11-24T12:51:27.289Z,7.59
2022-11-24T12:54:38.717Z,7.62
2022-11-24T12:57:51.001Z,7.69
2022-11-24T13:01:16.106Z,7.73
2022-11-24T13:04:36.346Z,7.75
2022-11-24T13:07:45.564Z,7.78
2022-11-24T13:10:57.528Z,7.67
2022-11-24T13:14:18.128Z,7.68
2022-11-24T13:17:35.143Z,7.65
2022-11-24T13:20:41.590Z,7.60
2022-11-24T13:23:56.528Z,7.57
2022-11-24T13:27:13.909Z,7.61
2022-11-24T13:30:34.501Z,7.65
2022-11-24T13:33:37.093Z,7.65
2022-11-24T13:36:53.228Z,7.52
2022-11-24T13:40:17.709Z,7.43
2022-11-24T13:43:20.790Z,7.47
2022-11-24T13:47:06.208Z,7.49
2022-11-24T13:50:18.527Z,7.54
2022-11-24T13:53:47.082Z,7.55
2022-11-24T13:56:49.495Z,7.52
2022-11-24T13:59:51.614Z,7.48
2022-11-24T14:02:59.343Z,7.49
2022-11-24T14:06:03.037Z,7.39
2022-11-24T14:09:18.415Z,7.41
2022-11-24T14:12:23.779Z,7.41
2022-11-24T14:15:29.427Z,7.31
2022-11-24T14:18:37.586Z,7.45
2022-11-24T14:21:44.402Z,7.34
2022-11-24T14:24:57.943Z,7.46
2022-11-24T14:28:00.507Z,7.43
2022-11-24T14:31:08.271Z,7.37
2022-11-24T14:34:21.084Z,7.41
2022-11-24T14:37:23.523Z,7.41
2022-11-24T14:40:52.012Z,7.25
2022-11-24T14:44:16.402Z,7.30
2022-11-24T14:47:45.144Z,7.29
2022-11-24T14:50:47.742Z,7.33
2022-11-24T14:53:55.203Z,7.33
2022-11-24T14:57:04.119Z,7.31
2022-11-24T15:00:12.246Z,7.33
2022-11-24T15:03:18.639Z,7.36
2022-11-24T15:06:21.150Z,7.42
2022-11-24T15:09:26.556Z,7.33
2022-11-24T15:12:34.441Z,7.39
2022-11-24T15:15:38.725Z,7.19
2022-11-24T15:18:47.522Z,7.13
2022-11-24T15:21:49.987Z,6.94
2022-11-24T15:24:53.693Z,7.00
2022-11-24T15:27:56.703Z,6.91
2022-11-24T15:31:09.684Z,6.84
2022-11-24T15:34:14.232Z,6.74
2022-11-24T15:37:16.398Z,6.73
2022-11-24T15:40:19.936Z,6.71
2022-11-24T15:43:34.249Z,6.65
2022-11-24T15:46:38.685Z,6.63
2022-11-24T15:49:41.073Z,6.58
2022-11-24T15:52:44.196Z,6.53
2022-11-24T15:55:47.546Z,6.53
2022-11-24T15:58:50.153Z,6.55
2022-11-24T16:01:52.487Z,6.62
2022-11-24T16:04:54.986Z,6.49
2022-11-24T16:07:57.169Z,6.50
2022-11-24T16:10:59.559Z,6.51
2022-11-24T16:14:01.771Z,6.51
2022-11-24T16:17:04.274Z,6.40
2022-11-24T16:20:07.623Z,6.32
2022-11-24T16:23:10.119Z,6.36
2022-11-24T16:26:12.356Z,6.42
2022-11-24T16:29:15.046Z,6.39
2022-11-24T16:32:17.159Z,6.36
2022-11-24T16:35:20.029Z,6.48
2022-11-24T16:38:22.210Z,6.50
2022-11-24T16:41:24.589Z,6.42
2022-11-24T16:44:26.692Z,6.31
2022-11-24T16:47:29.173Z,6.31
2022-11-24T16:50:31.408Z,6.39
2022-11-24T16:53:33.932Z,6.28
2022-11-24T16:56:36.204Z,6.32
2022-11-24T16:59:39.020Z,6.26
2022-11-24T17:02:41.213Z,6.22
2022-11-24T17:05:43.917Z,6.27
2022-11-24T17:08:46.709Z,6.29
2022-11-24T17:11:49.202Z,6.28
2022-11-24T17:15:16.335Z,6.18
2022-11-24T17:18:24.574Z,6.19
2022-11-24T17:21:28.110Z,6.24
2022-11-24T17:24:30.524Z,6.22
2022-11-24T17:27:32.921Z,6.26
2022-11-24T17:30:36.870Z,6.17
2022-11-24T17:33:39.094Z,6.19
2022-11-24T17:36:44.635Z,6.09
2022-11-24T17:40:05.665Z,6.08
2022-11-24T17:43:09.145Z,6.09
2022-11-24T17:46:11.333Z,6.10
2022-11-24T17:49:15.488Z,6.00
2022-11-24T17:52:18.145Z,5.90
2022-11-24T17:55:20.853Z,5.80
2022-11-24T17:58:23.003Z,5.88
2022-11-24T18:01:28.665Z,5.87
2022-11-24T18:04:31.294Z,5.64
2022-11-24T18:07:36.169Z,5.72
2022-11-24T18:10:39.141Z,5.78
2022-11-24T18:13:56.694Z,5.83
2022-11-24T18:17:02.752Z,5.79
2022-11-24T18:20:05.662Z,5.80
2022-11-24T18:23:08.015Z,5.82
2022-11-24T18:26:13.933Z,5.79
2022-11-24T18:29:16.927Z,5.84
2022-11-24T18:32:19.172Z,5.82
2022-11-24T18:35:21.645Z,5.72
2022-11-24T18:38:24.263Z,5.74
2022-11-24T18:41:27.180Z,5.80
2022-11-24T18:44:29.398Z,5.77
2022-11-24T18:47:31.950Z,5.78
2022-11-24T18:50:34.229Z,5.81
2022-11-24T18:53:36.771Z,5.79
2022-11-24T18:56:38.865Z,5.82
2022-11-24T18:59:41.524Z,5.86
2022-11-24T19:02:43.883Z,5.95
2022-11-24T19:05:46.513Z,5.85
2022-11-24T19:08:49.115Z,5.92
2022-11-24T19:11:51.534Z,5.84
2022-11-24T19:14:54.391Z,5.87
2022-11-24T19:17:56.914Z,5.79
2022-11-24T19:20:59.041Z,5.87
2022-11-24T19:24:05.338Z,5.82
2022-11-24T19:27:08.194Z,5.87
2022-11-24T19:30:10.870Z,5.73
2022-11-24T19:33:13.233Z,5.68
2022-11-24T19:36:18.540Z,5.70
2022-11-24T19:39:20.822Z,5.79
2022-11-24T19:42:23.361Z,5.72
2022-11-24T19:45:25.670Z,5.76
2022-11-24T19:48:36.462Z,5.80
2022-11-24T19:51:39.825Z,5.77
2022-11-24T19:54:42.430Z,5.85
2022-11-24T19:57:44.621Z,5.88
2022-11-24T20:00:47.118Z,5.93
2022-11-24T20:03:56.016Z,5.82
2022-11-24T20:06:58.303Z,5.79
2022-11-24T20:10:06.097Z,5.71
2022-11-24T20:13:09.816Z,5.67
2022-11-24T20:16:26.599Z,5.76
2022-11-24T20:19:29.115Z,5.88
2022-11-24T20:22:31.835Z,5.81
2022-11-24T20:25:37.229Z,5.89
2022-11-24T20:28:40.634Z,5.95
2022-11-24T20:31:45.859Z,5.80
2022-11-24T20:34:49.303Z,5.85
2022-11-24T20:37:51.434Z,5.86
2022-11-24T20:41:03.483Z,5.80
2022-11-24T20:44:13.616Z,5.78
2022-11-24T20:47:16.144Z,5.79
2022-11-24T20:50:18.497Z,5.79
2022-11-24T20:53:20.958Z,5.76
2022-11-24T20:56:28.717Z,5.75
2022-11-24T20:59:31.341Z,5.83
2022-11-24T21:02:33.593Z,5.72
2022-11-24T21:05:36.064Z,5.76
2022-11-24T21:08:39.855Z,5.92
2022-11-24T21:11:43.221Z,6.02
2022-11-24T21:14:45.548Z,5.96
2022-11-24T21:17:47.942Z,5.96
2022-11-24T21:20:50.340Z,5.93
2022-11-24T21:23:56.457Z,5.93
2022-11-24T21:26:58.722Z,5.94
2022-11-24T21:30:01.212Z,5.86
2022-11-24T21:33:05.116Z,5.88
2022-11-24T21:36:08.367Z,5.81
2022-11-24T21:39:13.634Z,5.76
2022-11-24T21:42:16.455Z,5.69
2022-11-24T21:45:18.597Z,5.73
2022-11-24T21:48:21.167Z,5.67
2022-11-24T21:51:23.315Z,5.62
2022-11-24T21:54:25.826Z,5.63
2022-11-24T21:57:28.493Z,5.60
2022-11-24T22:00:30.870Z,5.44
2022-11-24T22:03:33.284Z,5.22
2022-11-24T22:06:35.561Z,5.04
2022-11-24T22:09:38.013Z,4.85
2022-11-24T22:12:40.208Z,4.74
2022-11-24T22:15:43.035Z,4.67
2022-11-24T22:18:46.013Z,4.48
2022-11-24T22:21:49.453Z,4.36
2022-11-24T22:24:51.661Z,4.34
2022-11-24T22:27:54.158Z,4.36
2022-11-24T22:30:56.272Z,4.36
2022-11-24T22:34:00.318Z,4.31
2022-11-24T22:37:02.610Z,4.30
2022-11-24T22:40:05.688Z,4.20
2022-11-24T22:43:07.806Z,4.14
2022-11-24T22:46:11.554Z,4.07
2022-11-24T22:49:14.055Z,4.07
2022-11-24T22:52:16.563Z,4.02
2022-11-24T22:55:18.732Z,4.08
2022-11-24T22:58:21.185Z,4.22
2022-11-24T23:01:25.030Z,4.27
2022-11-24T23:04:27.642Z,4.24
2022-11-24T23:07:29.979Z,4.15
2022-11-24T23:10:32.443Z,4.12
2022-11-24T23:13:34.843Z,4.03
2022-11-24T23:16:37.424Z,4.05
2022-11-24T23:19:39.632Z,4.01
2022-11-24T23:22:42.090Z,4.03
2022-11-24T23:25:44.196Z,3.97
2022-11-24T23:28:46.843Z,3.90
2022-11-24T23:31:49.066Z,3.86
2022-11-24T23:34:51.495Z,3.81
2022-11-24T23:38:07.128Z,3.73
2022-11-24T23:41:12.590Z,3.73
2022-11-24T23:44:15.369Z,3.70
2022-11-24T23:47:17.788Z,3.67
2022-11-24T23:50:19.949Z,3.69
2022-11-24T23:53:22.673Z,3.70
2022-11-24T23:56:33.386Z,3.74
2022-11-24T23:59:36.096Z,3.70
